Time;durP1;ratioP1;P1;durP2;ratioP2;P2;SDS_P1;SDS_P2;PMS_P1;PMS_P2;Temp;Humidity;BMP_temperature;BMP_pressure;BME280_temperature;BME280_humidity;BME280_pressure;Samples;Min_cycle;Max_cycle;Signal;HPM_P1;HPM_P2
2022/07/10 00:01:25;;;;;;;7.38;1.70;;;;;;;;;;5012823;28;20248;-72
2022/07/10 00:03:51;;;;;;;7.32;1.55;;;;;;;;;;5029517;28;20202;-72
2022/07/10 00:06:16;;;;;;;4.88;1.83;;;;;;;;;;5029335;28;20383;-72
2022/07/10 00:08:42;;;;;;;5.82;1.60;;;;;;;;;;5016284;28;20194;-72
2022/07/10 00:11:08;;;;;;;8.82;1.95;;;;;;;;;;5025440;28;20268;-72
2022/07/10 00:13:33;;;;;;;2.53;1.20;;;;;;;;;;5031224;28;20281;-72
2022/07/10 00:15:58;;;;;;;5.10;1.85;;;;;;;;;;5033965;28;20183;-72
2022/07/10 00:18:23;;;;;;;3.97;1.77;;;;;;;;;;5027867;28;20178;-72
2022/07/10 00:20:49;;;;;;;7.43;1.83;;;;;;;;;;5028395;28;20199;-72
2022/07/10 00:23:14;;;;;;;3.25;1.75;;;;;;;;;;5026428;28;20203;-72
2022/07/10 00:25:39;;;;;;;3.45;1.50;;;;;;;;;;5033382;28;20210;-72
2022/07/10 00:28:04;;;;;;;3.85;1.52;;;;;;;;;;5019681;28;20190;-72
2022/07/10 00:30:30;;;;;;;9.32;2.13;;;;;;;;;;5031043;28;20239;-72
2022/07/10 00:32:55;;;;;;;4.65;1.70;;;;;;;;;;5032977;28;20284;-72
2022/07/10 00:35:20;;;;;;;6.10;1.80;;;;;;;;;;5033652;28;20616;-72
2022/07/10 00:37:45;;;;;;;4.53;2.67;;;;;;;;;;5035014;28;20635;-72
2022/07/10 00:40:12;;;;;;;7.03;1.67;;;;;;;;;;5033329;28;20193;-72
2022/07/10 00:42:37;;;;;;;7.97;1.70;;;;;;;;;;5015131;28;20208;-72
2022/07/10 00:45:02;;;;;;;7.38;2.33;;;;;;;;;;5033755;28;20249;-72
2022/07/10 00:47:27;;;;;;;3.35;1.50;;;;;;;;;;5027255;28;20179;-72
2022/07/10 00:49:52;;;;;;;4.78;2.22;;;;;;;;;;5031132;28;20166;-72
2022/07/10 00:52:18;;;;;;;3.28;1.52;;;;;;;;;;5033136;28;20616;-72
2022/07/10 00:54:45;;;;;;;6.63;1.90;;;;;;;;;;5034110;28;20174;-72
2022/07/10 00:57:12;;;;;;;3.15;1.80;;;;;;;;;;5030144;28;20573;-72
2022/07/10 00:59:37;;;;;;;4.40;1.73;;;;;;;;;;5031895;28;20174;-72
2022/07/10 01:02:03;;;;;;;5.15;1.90;;;;;;;;;;5029134;28;20305;-72
2022/07/10 01:04:29;;;;;;;3.63;1.80;;;;;;;;;;5028239;28;20684;-72
2022/07/10 01:06:54;;;;;;;10.38;3.05;;;;;;;;;;5032919;28;20259;-72
2022/07/10 01:09:19;;;;;;;3.15;2.15;;;;;;;;;;5027447;28;20232;-72
2022/07/10 01:11:45;;;;;;;2.90;1.80;;;;;;;;;;5026827;28;20236;-72
2022/07/10 01:14:10;;;;;;;6.35;2.00;;;;;;;;;;5028054;28;20705;-72
2022/07/10 01:16:35;;;;;;;6.40;2.17;;;;;;;;;;5027532;28;20533;-72
2022/07/10 01:19:01;;;;;;;6.55;2.13;;;;;;;;;;5030398;28;20235;-73
2022/07/10 01:21:27;;;;;;;7.55;1.92;;;;;;;;;;5027297;28;20313;-72
2022/07/10 01:23:52;;;;;;;3.35;1.75;;;;;;;;;;5029280;28;20727;-72
2022/07/10 01:26:17;;;;;;;3.78;2.67;;;;;;;;;;5031169;28;20170;-72
2022/07/10 01:28:43;;;;;;;6.88;2.25;;;;;;;;;;5030548;28;20178;-72
2022/07/10 01:31:08;;;;;;;6.20;2.78;;;;;;;;;;5009314;28;20217;-72
2022/07/10 01:33:33;;;;;;;6.30;2.60;;;;;;;;;;5011400;28;20724;-72
2022/07/10 01:35:58;;;;;;;8.35;2.67;;;;;;;;;;5030796;28;20191;-72
2022/07/10 01:38:24;;;;;;;5.32;2.38;;;;;;;;;;5024758;28;20849;-72
2022/07/10 01:40:49;;;;;;;4.18;2.25;;;;;;;;;;5027548;28;20696;-73
2022/07/10 01:43:14;;;;;;;5.95;2.38;;;;;;;;;;5028962;28;20325;-73
2022/07/10 01:45:40;;;;;;;6.15;2.45;;;;;;;;;;5031943;28;20178;-72
2022/07/10 01:48:05;;;;;;;7.78;2.55;;;;;;;;;;5026320;28;20178;-72
2022/07/10 01:50:31;;;;;;;8.02;1.95;;;;;;;;;;5028424;28;20178;-74
2022/07/10 01:52:56;;;;;;;3.33;2.00;;;;;;;;;;5027015;28;20210;-72
2022/07/10 01:55:21;;;;;;;6.93;2.40;;;;;;;;;;5018149;28;20249;-71
2022/07/10 01:57:46;;;;;;;5.40;2.25;;;;;;;;;;5029146;28;20650;-72
2022/07/10 02:00:12;;;;;;;4.47;1.83;;;;;;;;;;5029256;28;20214;-72
2022/07/10 02:02:37;;;;;;;4.13;2.30;;;;;;;;;;5011295;28;20663;-71
2022/07/10 02:05:02;;;;;;;6.47;2.20;;;;;;;;;;5032555;28;20174;-72
2022/07/10 02:07:27;;;;;;;5.00;2.20;;;;;;;;;;5030915;28;20196;-73
2022/07/10 02:09:53;;;;;;;3.45;2.05;;;;;;;;;;5011793;28;20212;-72
2022/07/10 02:12:18;;;;;;;5.20;2.60;;;;;;;;;;5031732;28;20193;-73
2022/07/10 02:14:43;;;;;;;5.80;2.23;;;;;;;;;;5015939;28;20190;-73
2022/07/10 02:17:09;;;;;;;22.45;3.42;;;;;;;;;;5027266;28;20541;-72
2022/07/10 02:19:34;;;;;;;2.13;1.73;;;;;;;;;;5028491;28;20190;-73
2022/07/10 02:22:00;;;;;;;5.63;1.88;;;;;;;;;;5030423;28;20242;-72
2022/07/10 02:24:25;;;;;;;6.40;2.37;;;;;;;;;;5026799;28;20582;-73
2022/07/10 02:26:51;;;;;;;4.83;1.80;;;;;;;;;;5033284;28;20666;-73
2022/07/10 02:29:17;;;;;;;4.73;1.60;;;;;;;;;;5034986;28;20186;-73
2022/07/10 02:31:42;;;;;;;5.95;1.92;;;;;;;;;;5030013;28;20671;-72
2022/07/10 02:34:11;;;;;;;5.22;1.75;;;;;;;;;;5051233;22;20229;-71
2022/07/10 02:36:38;;;;;;;4.50;2.28;;;;;;;;;;5035161;28;20183;-69
2022/07/10 02:39:04;;;;;;;6.13;2.00;;;;;;;;;;5027852;28;20201;-71
2022/07/10 02:41:30;;;;;;;6.05;1.60;;;;;;;;;;5029643;28;20214;-71
2022/07/10 02:43:55;;;;;;;10.47;2.10;;;;;;;;;;5019445;28;20200;-71
2022/07/10 02:46:20;;;;;;;5.37;2.07;;;;;;;;;;5008277;28;20175;-71
2022/07/10 02:48:45;;;;;;;4.60;1.90;;;;;;;;;;5011140;28;20190;-71
2022/07/10 02:51:11;;;;;;;5.90;1.80;;;;;;;;;;5011145;28;20265;-70
2022/07/10 02:53:36;;;;;;;3.30;2.20;;;;;;;;;;5006740;28;20203;-71
2022/07/10 02:56:01;;;;;;;5.03;2.28;;;;;;;;;;5020633;28;20183;-71
2022/07/10 02:58:27;;;;;;;3.17;1.60;;;;;;;;;;5015216;28;20536;-72
2022/07/10 03:00:52;;;;;;;5.40;2.47;;;;;;;;;;5017708;28;20582;-71
2022/07/10 03:03:18;;;;;;;5.97;1.83;;;;;;;;;;5010156;28;20680;-71
2022/07/10 03:05:44;;;;;;;4.10;1.80;;;;;;;;;;5009956;28;20183;-71
2022/07/10 03:08:09;;;;;;;6.38;2.00;;;;;;;;;;5011412;28;20934;-71
2022/07/10 03:10:34;;;;;;;6.03;1.92;;;;;;;;;;5008584;28;20218;-71
2022/07/10 03:13:00;;;;;;;4.47;1.85;;;;;;;;;;5012068;28;20251;-71
2022/07/10 03:15:25;;;;;;;4.17;1.97;;;;;;;;;;5008691;28;20179;-71
2022/07/10 03:17:50;;;;;;;3.88;1.58;;;;;;;;;;5008450;28;20179;-71
2022/07/10 03:20:15;;;;;;;4.28;1.88;;;;;;;;;;5009598;28;20214;-71
2022/07/10 03:22:40;;;;;;;4.80;2.13;;;;;;;;;;5010505;28;20229;-71
2022/07/10 03:25:06;;;;;;;4.18;1.67;;;;;;;;;;5007645;28;20616;-71
2022/07/10 03:27:31;;;;;;;5.78;1.70;;;;;;;;;;5006047;28;20207;-70
2022/07/10 03:29:56;;;;;;;6.20;1.88;;;;;;;;;;4999070;28;20227;-71
2022/07/10 03:32:21;;;;;;;4.57;2.58;;;;;;;;;;5008120;28;20186;-70
2022/07/10 03:34:47;;;;;;;5.07;2.20;;;;;;;;;;5006505;28;20599;-71
2022/07/10 03:37:12;;;;;;;8.77;1.60;;;;;;;;;;4999624;28;20179;-70
2022/07/10 03:39:37;;;;;;;3.25;1.75;;;;;;;;;;5006305;28;20282;-71
2022/07/10 03:42:03;;;;;;;2.95;1.38;;;;;;;;;;5010816;28;20253;-71
2022/07/10 03:44:28;;;;;;;6.03;1.65;;;;;;;;;;5008391;28;20269;-71
2022/07/10 03:46:53;;;;;;;6.72;1.55;;;;;;;;;;5007507;28;20175;-71
2022/07/10 03:49:18;;;;;;;5.47;1.70;;;;;;;;;;5001326;28;20253;-71
2022/07/10 03:51:43;;;;;;;3.83;1.50;;;;;;;;;;5006705;28;20270;-71
2022/07/10 03:54:09;;;;;;;5.18;1.85;;;;;;;;;;5009958;28;20210;-70
2022/07/10 03:59:18;;;;;;;7.00;2.95;;;;;;;;;;4999139;28;20286;-71
2022/07/10 04:01:43;;;;;;;3.88;1.65;;;;;;;;;;5001901;28;20709;-71
2022/07/10 04:04:08;;;;;;;4.25;1.60;;;;;;;;;;5006549;28;20202;-71
2022/07/10 04:06:34;;;;;;;5.00;2.05;;;;;;;;;;5009833;28;20221;-70
2022/07/10 04:08:59;;;;;;;6.47;1.80;;;;;;;;;;5010164;28;20541;-71
2022/07/10 04:11:24;;;;;;;4.95;1.40;;;;;;;;;;5010421;28;20186;-70
2022/07/10 04:13:49;;;;;;;4.47;2.25;;;;;;;;;;5009016;28;20280;-71
2022/07/10 04:16:14;;;;;;;4.47;1.88;;;;;;;;;;5009021;28;20194;-71
2022/07/10 04:18:40;;;;;;;7.45;1.77;;;;;;;;;;4999688;28;20195;-71
2022/07/10 04:21:05;;;;;;;4.93;2.30;;;;;;;;;;5007217;28;20285;-70
2022/07/10 04:23:32;;;;;;;2.42;1.42;;;;;;;;;;5009451;28;20273;-71
2022/07/10 04:25:57;;;;;;;3.33;1.40;;;;;;;;;;5008061;28;20167;-71
2022/07/10 04:28:22;;;;;;;3.95;1.85;;;;;;;;;;5009325;28;20322;-71
2022/07/10 04:30:47;;;;;;;8.57;2.55;;;;;;;;;;5006886;28;20560;-70
2022/07/10 04:33:12;;;;;;;3.17;1.60;;;;;;;;;;5005069;28;20218;-71
2022/07/10 04:35:38;;;;;;;7.03;2.03;;;;;;;;;;5010344;28;20184;-70
2022/07/10 04:38:03;;;;;;;7.00;1.63;;;;;;;;;;5015335;28;20483;-71
2022/07/10 04:40:29;;;;;;;5.38;1.80;;;;;;;;;;5015063;28;20286;-71
2022/07/10 04:42:54;;;;;;;3.53;1.45;;;;;;;;;;5015106;28;20570;-71
2022/07/10 04:45:19;;;;;;;4.15;1.63;;;;;;;;;;5013342;28;20701;-71
2022/07/10 04:47:44;;;;;;;2.80;1.50;;;;;;;;;;5015373;28;20178;-71
2022/07/10 04:50:09;;;;;;;2.50;1.50;;;;;;;;;;5012121;28;20233;-71
2022/07/10 04:52:35;;;;;;;3.20;1.50;;;;;;;;;;5014627;28;20561;-71
2022/07/10 04:55:01;;;;;;;7.15;2.17;;;;;;;;;;5013543;28;20214;-71
2022/07/10 04:57:26;;;;;;;5.63;2.33;;;;;;;;;;5012991;28;20260;-70
2022/07/10 04:59:51;;;;;;;5.07;1.58;;;;;;;;;;5014169;28;20325;-71
2022/07/10 05:02:16;;;;;;;4.10;1.50;;;;;;;;;;5013976;28;20202;-71
2022/07/10 05:04:42;;;;;;;6.13;1.67;;;;;;;;;;5002042;28;20772;-70
2022/07/10 05:07:07;;;;;;;7.13;1.60;;;;;;;;;;5011551;28;20182;-71
2022/07/10 05:09:32;;;;;;;6.88;1.65;;;;;;;;;;5012089;28;20179;-70
2022/07/10 05:11:57;;;;;;;4.43;1.73;;;;;;;;;;5008549;28;20187;-71
2022/07/10 05:14:22;;;;;;;1.85;1.50;;;;;;;;;;5011353;28;20209;-71
2022/07/10 05:16:47;;;;;;;3.47;1.52;;;;;;;;;;5002478;28;20839;-71
2022/07/10 05:19:13;;;;;;;2.95;1.55;;;;;;;;;;4998550;28;20712;-70
2022/07/10 05:21:38;;;;;;;4.47;1.60;;;;;;;;;;4995403;28;20207;-71
2022/07/10 05:24:03;;;;;;;3.70;1.40;;;;;;;;;;4997229;28;20201;-70
2022/07/10 05:26:28;;;;;;;3.42;1.70;;;;;;;;;;5008337;28;20226;-71
2022/07/10 05:28:54;;;;;;;6.40;2.13;;;;;;;;;;5000054;28;20191;-71
2022/07/10 05:31:19;;;;;;;3.47;2.03;;;;;;;;;;5005542;28;20551;-71
2022/07/10 05:33:44;;;;;;;7.03;1.27;;;;;;;;;;4999207;28;20230;-71
2022/07/10 05:36:09;;;;;;;7.75;1.73;;;;;;;;;;5001003;28;20183;-71
2022/07/10 05:38:34;;;;;;;7.60;1.95;;;;;;;;;;4991188;28;20179;-71
2022/07/10 05:41:00;;;;;;;4.55;1.50;;;;;;;;;;5006622;28;20191;-71
2022/07/10 05:43:25;;;;;;;2.65;1.30;;;;;;;;;;5012762;28;20230;-71
2022/07/10 05:45:50;;;;;;;4.72;1.20;;;;;;;;;;5003820;28;20186;-71
2022/07/10 05:48:15;;;;;;;3.35;1.38;;;;;;;;;;5003480;28;20618;-71
2022/07/10 05:50:41;;;;;;;4.35;1.48;;;;;;;;;;5010703;28;20684;-71
2022/07/10 05:53:06;;;;;;;8.68;2.83;;;;;;;;;;5010526;28;20281;-71
2022/07/10 05:55:31;;;;;;;3.17;1.40;;;;;;;;;;5010447;28;20648;-71
2022/07/10 05:57:56;;;;;;;5.88;1.48;;;;;;;;;;5006247;28;20190;-71
2022/07/10 06:00:21;;;;;;;8.18;1.58;;;;;;;;;;5009709;28;20179;-71
2022/07/10 06:02:47;;;;;;;5.47;2.20;;;;;;;;;;5005736;28;20329;-71
2022/07/10 06:05:13;;;;;;;6.55;1.65;;;;;;;;;;5010471;28;20175;-70
2022/07/10 06:07:38;;;;;;;3.40;1.40;;;;;;;;;;5011461;28;20605;-71
2022/07/10 06:10:04;;;;;;;6.45;1.25;;;;;;;;;;5012439;28;20194;-70
2022/07/10 06:12:29;;;;;;;6.22;2.00;;;;;;;;;;5004735;28;20193;-71
2022/07/10 06:14:54;;;;;;;7.65;1.90;;;;;;;;;;5010997;28;20237;-70
2022/07/10 06:17:19;;;;;;;3.53;1.58;;;;;;;;;;5005202;28;20719;-70
2022/07/10 06:19:45;;;;;;;4.75;1.30;;;;;;;;;;5004803;28;20347;-71
2022/07/10 06:24:54;;;;;;;5.40;2.13;;;;;;;;;;5006908;28;20249;-70
2022/07/10 06:27:19;;;;;;;7.30;2.00;;;;;;;;;;5009504;28;20211;-70
2022/07/10 06:29:44;;;;;;;7.90;1.83;;;;;;;;;;5010613;28;20179;-70
2022/07/10 06:32:09;;;;;;;5.03;2.00;;;;;;;;;;5010889;28;20734;-70
2022/07/10 06:34:35;;;;;;;5.60;2.80;;;;;;;;;;5012962;28;20702;-70
2022/07/10 06:37:00;;;;;;;6.33;2.50;;;;;;;;;;5011718;28;20187;-70
2022/07/10 06:39:25;;;;;;;2.78;1.38;;;;;;;;;;5007055;28;20419;-70
2022/07/10 06:41:50;;;;;;;5.03;1.20;;;;;;;;;;5008005;28;20233;-69
2022/07/10 06:44:16;;;;;;;4.32;1.10;;;;;;;;;;5011157;28;20676;-70
2022/07/10 06:46:41;;;;;;;4.00;1.50;;;;;;;;;;5011101;28;20314;-70
2022/07/10 06:49:06;;;;;;;7.15;1.35;;;;;;;;;;5008927;28;20248;-70
2022/07/10 06:51:31;;;;;;;4.32;1.70;;;;;;;;;;5010866;28;20607;-70
2022/07/10 06:53:57;;;;;;;4.75;1.30;;;;;;;;;;5011253;28;20719;-70
2022/07/10 06:56:22;;;;;;;3.75;1.33;;;;;;;;;;5011064;28;20183;-70
2022/07/10 06:58:47;;;;;;;4.30;1.20;;;;;;;;;;5009517;28;20178;-70
2022/07/10 07:01:12;;;;;;;5.45;1.65;;;;;;;;;;5007357;28;20695;-70
2022/07/10 07:03:37;;;;;;;3.78;1.00;;;;;;;;;;5012885;28;20678;-71
2022/07/10 07:06:03;;;;;;;3.90;1.52;;;;;;;;;;5000511;28;20653;-71
2022/07/10 07:08:31;;;;;;;3.70;1.50;;;;;;;;;;5007374;28;20179;-71
2022/07/10 07:10:56;;;;;;;3.03;1.25;;;;;;;;;;5008123;28;20225;-71
2022/07/10 07:13:21;;;;;;;5.35;1.33;;;;;;;;;;5007305;28;20249;-71
2022/07/10 07:15:55;;;;;;;3.35;1.23;;;;;;;;;;5009936;28;20179;-72
2022/07/10 07:18:22;;;;;;;4.03;1.13;;;;;;;;;;5005272;28;20266;-71
2022/07/10 07:23:31;;;;;;;5.28;1.30;;;;;;;;;;5006037;28;20809;-70
2022/07/10 07:25:56;;;;;;;4.35;1.20;;;;;;;;;;5008444;28;20171;-71
2022/07/10 07:28:21;;;;;;;3.58;1.20;;;;;;;;;;5011358;28;20253;-70
2022/07/10 07:30:47;;;;;;;3.13;1.20;;;;;;;;;;5010981;28;20471;-71
2022/07/10 07:33:13;;;;;;;3.85;1.15;;;;;;;;;;5010862;28;20215;-70
2022/07/10 07:35:38;;;;;;;5.72;1.40;;;;;;;;;;5006230;28;20270;-71
2022/07/10 07:38:04;;;;;;;3.63;1.73;;;;;;;;;;5010693;28;20178;-70
2022/07/10 07:40:30;;;;;;;4.15;1.13;;;;;;;;;;5014603;28;20248;-71
2022/07/10 07:42:56;;;;;;;5.03;1.07;;;;;;;;;;5011689;28;20668;-71
2022/07/10 07:45:22;;;;;;;5.25;1.23;;;;;;;;;;5010939;28;20424;-70
2022/07/10 07:47:47;;;;;;;6.95;1.80;;;;;;;;;;5009535;28;20179;-69
2022/07/10 07:50:13;;;;;;;4.88;1.38;;;;;;;;;;5008003;28;20262;-70
2022/07/10 07:52:38;;;;;;;4.63;1.80;;;;;;;;;;5004781;28;20207;-71
2022/07/10 07:55:04;;;;;;;4.82;1.00;;;;;;;;;;5007634;28;20260;-70
2022/07/10 07:57:29;;;;;;;6.95;1.10;;;;;;;;;;5008134;28;20187;-71
2022/07/10 07:59:54;;;;;;;12.13;2.15;;;;;;;;;;5005294;28;20281;-71
2022/07/10 08:02:21;;;;;;;3.28;1.52;;;;;;;;;;5011137;28;20756;-71
2022/07/10 08:04:46;;;;;;;3.83;1.40;;;;;;;;;;5009165;28;20268;-71
2022/07/10 08:07:11;;;;;;;3.40;1.00;;;;;;;;;;5009558;28;20612;-73
2022/07/10 08:09:36;;;;;;;2.80;1.23;;;;;;;;;;5008623;28;20515;-71
2022/07/10 08:12:02;;;;;;;3.33;1.20;;;;;;;;;;5013201;28;20423;-71
2022/07/10 08:14:27;;;;;;;5.28;1.45;;;;;;;;;;5015241;28;20423;-71
2022/07/10 08:16:52;;;;;;;3.95;1.35;;;;;;;;;;5012309;28;20209;-71
2022/07/10 08:19:17;;;;;;;3.03;1.23;;;;;;;;;;5010012;28;20266;-71
2022/07/10 08:21:43;;;;;;;2.88;1.25;;;;;;;;;;5007621;28;20305;-71
2022/07/10 08:24:08;;;;;;;2.10;1.10;;;;;;;;;;5009652;28;20623;-71
2022/07/10 08:26:33;;;;;;;2.80;1.50;;;;;;;;;;5008922;28;20187;-71
2022/07/10 08:28:59;;;;;;;3.17;1.15;;;;;;;;;;5009987;28;20993;-71
2022/07/10 08:31:24;;;;;;;5.53;1.30;;;;;;;;;;5013594;28;20213;-71
2022/07/10 08:33:51;;;;;;;2.30;0.90;;;;;;;;;;5019873;22;20608;-73
2022/07/10 08:36:16;;;;;;;2.47;1.00;;;;;;;;;;5025560;28;20178;-73
2022/07/10 08:38:41;;;;;;;4.07;2.00;;;;;;;;;;5015808;28;20187;-72
2022/07/10 08:41:06;;;;;;;5.93;1.30;;;;;;;;;;5012768;28;20498;-73
2022/07/10 08:43:32;;;;;;;2.60;1.30;;;;;;;;;;5013528;28;20947;-73
2022/07/10 08:45:58;;;;;;;2.95;1.40;;;;;;;;;;5020722;28;20191;-73
2022/07/10 08:48:24;;;;;;;7.22;1.80;;;;;;;;;;5012251;28;20186;-72
2022/07/10 08:50:51;;;;;;;2.13;1.23;;;;;;;;;;5017963;28;20572;-73
2022/07/10 08:53:21;;;;;;;3.90;1.65;;;;;;;;;;5013266;28;20211;-73
2022/07/10 08:55:46;;;;;;;2.35;1.23;;;;;;;;;;5012906;28;20190;-73
2022/07/10 08:58:14;;;;;;;4.97;1.40;;;;;;;;;;5017495;28;20180;-72
2022/07/10 09:00:40;;;;;;;2.92;1.60;;;;;;;;;;5019857;28;20203;-72
2022/07/10 09:03:06;;;;;;;3.17;1.17;;;;;;;;;;5022687;28;20248;-73
2022/07/10 09:05:32;;;;;;;4.18;1.30;;;;;;;;;;5020099;28;20182;-72
2022/07/10 09:07:57;;;;;;;3.00;1.47;;;;;;;;;;5014171;28;20176;-72
2022/07/10 09:10:25;;;;;;;2.95;1.38;;;;;;;;;;5010904;28;20459;-73
2022/07/10 09:12:55;;;;;;;3.92;1.35;;;;;;;;;;5001503;28;20265;-74
2022/07/10 09:15:24;;;;;;;2.50;1.10;;;;;;;;;;5016697;28;20274;-73
2022/07/10 09:17:50;;;;;;;1.83;0.95;;;;;;;;;;5013063;28;20840;-73
2022/07/10 09:20:32;;;;;;;2.25;1.20;;;;;;;;;;5013416;28;20175;-72
2022/07/10 09:23:08;;;;;;;3.65;1.40;;;;;;;;;;5006384;28;20226;-72
2022/07/10 09:25:34;;;;;;;2.80;1.65;;;;;;;;;;5007929;28;20171;-72
2022/07/10 09:28:05;;;;;;;6.63;1.50;;;;;;;;;;5001914;28;20239;-73
2022/07/10 09:30:34;;;;;;;2.03;1.10;;;;;;;;;;4999567;28;20596;-74
2022/07/10 09:33:17;;;;;;;3.65;1.20;;;;;;;;;;5009549;28;21583;-73
2022/07/10 09:36:05;;;;;;;5.63;1.45;;;;;;;;;;5012283;28;20187;-73
2022/07/10 09:38:51;;;;;;;2.70;1.10;;;;;;;;;;4995475;28;20183;-72
2022/07/10 09:41:20;;;;;;;2.85;1.25;;;;;;;;;;5007492;28;20209;-72
2022/07/10 09:43:46;;;;;;;4.57;1.23;;;;;;;;;;5011737;28;20195;-71
2022/07/10 09:46:11;;;;;;;3.28;1.27;;;;;;;;;;4997283;28;20640;-72
2022/07/10 09:48:36;;;;;;;4.15;1.30;;;;;;;;;;4995763;28;20184;-71
2022/07/10 09:51:01;;;;;;;3.27;1.13;;;;;;;;;;5024434;28;20182;-71
2022/07/10 09:53:27;;;;;;;5.78;1.35;;;;;;;;;;5009805;28;20441;-73
2022/07/10 09:55:54;;;;;;;2.88;1.15;;;;;;;;;;4996477;28;20617;-74
2022/07/10 09:58:22;;;;;;;2.38;1.00;;;;;;;;;;5005995;28;22240;-73
2022/07/10 10:00:48;;;;;;;2.33;1.02;;;;;;;;;;5002207;28;20211;-74
2022/07/10 10:03:14;;;;;;;2.33;1.20;;;;;;;;;;5003098;28;20289;-74
2022/07/10 10:05:43;;;;;;;2.05;1.20;;;;;;;;;;5009280;28;20182;-75
2022/07/10 10:08:12;;;;;;;3.17;1.20;;;;;;;;;;4980925;28;20653;-75
2022/07/10 10:10:39;;;;;;;1.55;0.95;;;;;;;;;;5004349;28;20680;-76
2022/07/10 10:13:07;;;;;;;4.35;1.25;;;;;;;;;;5020333;28;20281;-76
2022/07/10 10:15:32;;;;;;;3.63;1.00;;;;;;;;;;5011679;28;20187;-75
2022/07/10 10:17:58;;;;;;;2.60;1.17;;;;;;;;;;5016418;28;20221;-75
2022/07/10 10:20:37;;;;;;;2.53;0.90;;;;;;;;;;5005650;28;20676;-77
2022/07/10 10:23:03;;;;;;;3.95;1.10;;;;;;;;;;5017039;28;20603;-77
2022/07/10 10:25:31;;;;;;;3.75;1.27;;;;;;;;;;5012255;28;20175;-77
2022/07/10 10:27:57;;;;;;;2.80;0.95;;;;;;;;;;4991726;28;20181;-74
2022/07/10 10:30:22;;;;;;;1.58;0.82;;;;;;;;;;5018302;28;20269;-76
2022/07/10 10:32:48;;;;;;;2.30;0.65;;;;;;;;;;5017340;28;20183;-74
2022/07/10 10:35:33;;;;;;;5.00;1.17;;;;;;;;;;5011283;28;20186;-76
2022/07/10 10:37:58;;;;;;;6.95;1.50;;;;;;;;;;5015614;28;20404;-77
2022/07/10 10:40:31;;;;;;;3.38;1.65;;;;;;;;;;5010972;28;20194;-74
2022/07/10 10:42:58;;;;;;;2.92;0.80;;;;;;;;;;5009856;28;20172;-75
2022/07/10 10:45:29;;;;;;;3.22;1.00;;;;;;;;;;5018479;28;20187;-76
2022/07/10 10:47:58;;;;;;;2.65;1.00;;;;;;;;;;5008212;28;20189;-78
2022/07/10 10:50:37;;;;;;;1.30;0.80;;;;;;;;;;4998133;28;20216;-77
2022/07/10 10:53:03;;;;;;;2.10;1.02;;;;;;;;;;4992477;28;20560;-77
2022/07/10 10:55:28;;;;;;;3.30;0.90;;;;;;;;;;4990479;28;20677;-79
2022/07/10 10:58:11;;;;;;;1.93;1.03;;;;;;;;;;5012338;28;20208;-76
2022/07/10 11:00:41;;;;;;;1.77;0.80;;;;;;;;;;5022336;28;20885;-77
2022/07/10 11:03:14;;;;;;;2.67;0.95;;;;;;;;;;5005919;28;20298;-74
2022/07/10 11:05:41;;;;;;;3.08;1.27;;;;;;;;;;4996861;28;20183;-77
2022/07/10 11:08:07;;;;;;;2.42;0.90;;;;;;;;;;5007428;28;20179;-75
2022/07/10 11:10:35;;;;;;;1.83;1.00;;;;;;;;;;5012014;28;20194;-76
2022/07/10 11:13:01;;;;;;;4.97;1.10;;;;;;;;;;5011621;28;20207;-76
2022/07/10 11:15:26;;;;;;;5.90;1.23;;;;;;;;;;5017667;28;20270;-76
2022/07/10 11:17:52;;;;;;;1.98;1.00;;;;;;;;;;4987685;28;20622;-76
2022/07/10 11:20:17;;;;;;;2.40;1.48;;;;;;;;;;5012938;28;20182;-75
2022/07/10 11:23:01;;;;;;;3.47;1.67;;;;;;;;;;5020783;28;20214;-76
2022/07/10 11:25:42;;;;;;;3.33;1.25;;;;;;;;;;5006879;28;20921;-75
2022/07/10 11:28:09;;;;;;;2.65;1.05;;;;;;;;;;5011387;28;20183;-76
2022/07/10 11:30:50;;;;;;;1.67;0.70;;;;;;;;;;5022323;28;20262;-76
2022/07/10 11:33:15;;;;;;;3.08;1.20;;;;;;;;;;5006991;28;20210;-76
2022/07/10 11:35:43;;;;;;;2.50;1.10;;;;;;;;;;5000367;28;20202;-77
2022/07/10 11:38:09;;;;;;;1.73;1.00;;;;;;;;;;5003847;28;20266;-76
2022/07/10 11:40:40;;;;;;;5.30;1.10;;;;;;;;;;5007601;28;20755;-76
2022/07/10 11:43:13;;;;;;;1.83;0.90;;;;;;;;;;5007580;28;20289;-76
2022/07/10 11:45:39;;;;;;;0.93;0.70;;;;;;;;;;5009558;28;20179;-76
2022/07/10 11:48:05;;;;;;;1.92;0.80;;;;;;;;;;4995699;28;20541;-76
2022/07/10 11:50:37;;;;;;;2.50;1.13;;;;;;;;;;5010544;28;20196;-75
2022/07/10 11:53:03;;;;;;;2.42;1.15;;;;;;;;;;5008215;28;20200;-76
2022/07/10 11:55:29;;;;;;;2.05;0.88;;;;;;;;;;5015556;28;20204;-76
2022/07/10 11:57:55;;;;;;;0.70;0.65;;;;;;;;;;5000205;28;20266;-76
2022/07/10 12:00:20;;;;;;;1.98;1.00;;;;;;;;;;5002093;28;20611;-77
2022/07/10 12:02:46;;;;;;;1.50;0.52;;;;;;;;;;5004592;28;20751;-77
2022/07/10 12:05:29;;;;;;;2.53;0.73;;;;;;;;;;5007620;28;20183;-76
2022/07/10 12:07:54;;;;;;;2.05;0.70;;;;;;;;;;5009503;28;20490;-76
2022/07/10 12:10:20;;;;;;;1.55;0.90;;;;;;;;;;5009705;28;20656;-76
2022/07/10 12:12:45;;;;;;;3.65;0.90;;;;;;;;;;5000182;28;20214;-76
2022/07/10 12:15:17;;;;;;;1.65;0.88;;;;;;;;;;5016171;28;20191;-76
2022/07/10 12:17:51;;;;;;;1.17;0.80;;;;;;;;;;5008323;28;20189;-76
2022/07/10 12:20:17;;;;;;;2.13;1.00;;;;;;;;;;5006578;28;20401;-76
2022/07/10 12:22:42;;;;;;;2.13;0.90;;;;;;;;;;5009252;28;20246;-76
2022/07/10 12:25:09;;;;;;;1.73;0.80;;;;;;;;;;5017856;28;20187;-76
2022/07/10 12:27:41;;;;;;;5.60;0.80;;;;;;;;;;5002537;28;20168;-76
2022/07/10 12:30:06;;;;;;;1.70;0.70;;;;;;;;;;5019672;28;20182;-76
2022/07/10 12:32:31;;;;;;;1.45;0.82;;;;;;;;;;5007858;28;20197;-76
2022/07/10 12:34:58;;;;;;;2.97;0.70;;;;;;;;;;5009304;28;20222;-76
2022/07/10 12:37:23;;;;;;;3.38;0.75;;;;;;;;;;5005945;28;20486;-76
2022/07/10 12:39:52;;;;;;;3.58;0.90;;;;;;;;;;4987635;28;20191;-75
2022/07/10 12:42:27;;;;;;;2.28;0.80;;;;;;;;;;5007522;28;20195;-76
2022/07/10 12:44:52;;;;;;;3.17;0.95;;;;;;;;;;5011329;28;20233;-76
2022/07/10 12:47:19;;;;;;;1.60;0.60;;;;;;;;;;4999528;28;20206;-76
2022/07/10 12:50:01;;;;;;;2.03;0.70;;;;;;;;;;4994658;28;20179;-76
2022/07/10 12:52:33;;;;;;;1.05;0.60;;;;;;;;;;5021553;28;20186;-74
2022/07/10 12:55:15;;;;;;;1.90;0.90;;;;;;;;;;5020001;28;20683;-75
2022/07/10 12:57:57;;;;;;;1.85;0.70;;;;;;;;;;5003734;28;20575;-75
2022/07/10 13:00:30;;;;;;;2.25;1.00;;;;;;;;;;5008127;28;20233;-76
2022/07/10 13:03:02;;;;;;;1.83;0.47;;;;;;;;;;5013663;28;20175;-75
2022/07/10 13:05:33;;;;;;;1.80;0.77;;;;;;;;;;4994600;28;20175;-75
2022/07/10 13:08:12;;;;;;;2.03;1.00;;;;;;;;;;5007171;28;20184;-75
2022/07/10 13:10:39;;;;;;;1.80;0.60;;;;;;;;;;5012850;28;20663;-75
2022/07/10 13:13:04;;;;;;;2.40;0.70;;;;;;;;;;5019191;28;20281;-75
2022/07/10 13:15:30;;;;;;;1.70;0.80;;;;;;;;;;5003919;28;20279;-76
2022/07/10 13:17:55;;;;;;;1.77;0.85;;;;;;;;;;5014787;28;20175;-76
2022/07/10 13:20:21;;;;;;;4.10;0.80;;;;;;;;;;5013726;28;20648;-76
2022/07/10 13:22:46;;;;;;;1.37;0.80;;;;;;;;;;5015103;28;20195;-76
2022/07/10 13:25:11;;;;;;;3.23;0.70;;;;;;;;;;5023443;28;20826;-74
2022/07/10 13:27:36;;;;;;;1.55;0.68;;;;;;;;;;5014287;28;20438;-74
2022/07/10 13:30:05;;;;;;;2.90;0.80;;;;;;;;;;5003940;28;20186;-75
2022/07/10 13:32:31;;;;;;;3.63;0.60;;;;;;;;;;5008059;28;20873;-76
2022/07/10 13:34:56;;;;;;;3.15;1.10;;;;;;;;;;4988325;28;20305;-76
2022/07/10 13:37:21;;;;;;;2.08;0.80;;;;;;;;;;5008114;28;20230;-78
2022/07/10 13:39:46;;;;;;;4.00;0.80;;;;;;;;;;5007982;28;20187;-76
2022/07/10 13:42:11;;;;;;;5.13;1.37;;;;;;;;;;5010802;28;20202;-77
2022/07/10 13:44:37;;;;;;;1.57;0.67;;;;;;;;;;5014240;28;20475;-76
2022/07/10 13:47:02;;;;;;;2.40;0.95;;;;;;;;;;5008510;28;20923;-77
2022/07/10 13:49:27;;;;;;;4.90;1.05;;;;;;;;;;5011394;28;20593;-76
2022/07/10 13:51:52;;;;;;;2.13;1.00;;;;;;;;;;5012411;28;20183;-77
2022/07/10 13:54:18;;;;;;;3.77;1.40;;;;;;;;;;5016273;28;20213;-74
2022/07/10 13:56:43;;;;;;;3.30;0.93;;;;;;;;;;5020012;28;20436;-75
2022/07/10 13:59:08;;;;;;;1.92;0.90;;;;;;;;;;5016140;28;20187;-83
2022/07/10 14:01:33;;;;;;;4.07;1.10;;;;;;;;;;5005634;28;20210;-73
2022/07/10 14:03:59;;;;;;;3.38;0.90;;;;;;;;;;5008918;28;20241;-74
2022/07/10 14:06:24;;;;;;;4.50;0.97;;;;;;;;;;4998283;28;20178;-73
2022/07/10 14:08:49;;;;;;;3.13;1.10;;;;;;;;;;5010831;28;20422;-73
2022/07/10 14:11:14;;;;;;;4.03;1.10;;;;;;;;;;5013319;28;20221;-74
2022/07/10 14:13:39;;;;;;;1.40;1.00;;;;;;;;;;5002831;28;20448;-74
2022/07/10 14:16:43;;;;;;;1.63;1.00;;;;;;;;;;4998279;28;20194;-73
2022/07/10 14:19:08;;;;;;;3.47;1.00;;;;;;;;;;5005873;28;20431;-73
2022/07/10 14:21:33;;;;;;;1.95;0.90;;;;;;;;;;5010901;28;20201;-73
2022/07/10 14:24:01;;;;;;;2.92;1.40;;;;;;;;;;5011992;28;20303;-73
2022/07/10 14:26:26;;;;;;;3.45;1.10;;;;;;;;;;5010810;28;20245;-73
2022/07/10 14:28:52;;;;;;;2.47;1.10;;;;;;;;;;5018205;28;20657;-74
2022/07/10 14:31:18;;;;;;;3.38;1.10;;;;;;;;;;4994270;28;20199;-73
2022/07/10 14:33:43;;;;;;;6.60;1.30;;;;;;;;;;5010392;28;20219;-74
2022/07/10 14:36:08;;;;;;;4.53;1.20;;;;;;;;;;5010786;28;20194;-74
2022/07/10 14:38:33;;;;;;;2.00;1.40;;;;;;;;;;5022314;28;20204;-73
2022/07/10 14:40:59;;;;;;;3.92;1.10;;;;;;;;;;5010458;28;20256;-73
2022/07/10 14:43:24;;;;;;;4.10;1.30;;;;;;;;;;5020035;28;20206;-74
2022/07/10 14:45:49;;;;;;;2.25;1.20;;;;;;;;;;5017965;28;20454;-73
2022/07/10 14:48:14;;;;;;;5.25;1.40;;;;;;;;;;5016439;28;20584;-73